Charlestn, Mississippi
Current Conditions -  °F | °C
As of 10:15 AM on Friday 19 Dec 2014 (Local Time) from KRNV Reporting Station
Broken Clouds Broken Clouds  
Wind Chill: 42°   Ceiling: 2800
Heat Index: 46°   Visibility: 10mi
Dew Point: 42°   Wind: 7mph
Humidity: 85%   Direction: 50°NE
Pressure: 30.26"   Gusts: NA
Location:  33.8758°N, 90.2833°W
Report Text: KRNV 191615Z AUTO 05006KT 10SM BKN028 08/05 A3026 RMK AO2 T00770054
Loading
Personal Weather Stations






























Interactive Weather Map New forecast layout! Learn more

10-Day Weather Forecast

Advertisements
Track Severe Weather on mobile